Latest Weather Observations for Tewantin

IDQ60901

Issued at 2:21 pm EST Wednesday 2 September 2015 (issued every 10 minutes, with the page automatically refreshed every 10 minutes)

About weather observations | Map of Brisbane area stations | Latest observations for Brisbane area | Other Formats
Station Details ID: 040908 Name: TEWANTIN RSL PARK Lat: -26.39 Lon: 153.04 Height: 6.4 m
Data from the previous 72 hours. | See also: Recent months at Tewantin
Date/Time
EST
Tmp

°C
App
Tmp
°C
Dew
Point
°C
Rel
Hum
%
Delta-T

°C
Wind Press
QNH
hPa
Press
MSL
hPa
Rain
since
9 am
mm
Dir
 
Spd
km/h
Gust
km/h
Spd
kts
Gust
kts
02/02:00pm 22.0 19.2 11.4 51 5.9 NNE 17 24 9 13 1015.8 1015.8 0.0
02/01:30pm 22.2 20.7 14.1 60 4.7 NE 15 24 8 13 1016.3 1016.3 0.0
02/01:00pm 22.1 20.8 14.7 63 4.4 NNE 15 22 8 12 1016.8 1016.8 0.0
02/12:30pm 22.4 21.0 13.5 57 5.1 NE 13 19 7 10 1017.4 1017.4 0.0
02/12:00pm 22.5 20.7 12.2 52 5.8 NE 13 17 7 9 1018.0 1018.0 0.0
02/11:30am 23.1 20.6 8.0 38 7.9 NNE 11 15 6 8 1018.7 1018.7 0.0
02/11:00am 22.6 21.7 7.6 38 7.8 E 2 7 1 4 1019.2 1019.2 0.0
02/10:30am 22.3 21.5 9.5 44 6.9 NNE 4 9 2 5 1019.7 1019.7 0.0
02/10:00am 21.2 19.9 7.8 42 6.9 NNE 4 6 2 3 1019.9 1019.9 0.0
02/09:30am 20.4 19.8 11.6 57 4.9 NE 6 7 3 4 1020.0 1020.0 0.0
02/09:00am 18.5 17.5 9.0 54 4.9 N 4 7 2 4 1019.9 1019.9 0.0
02/08:30am 16.7 15.5 9.6 63 3.7 WNW 6 9 3 5 1020.0 1020.0 0.0
02/08:00am 14.3 12.7 8.7 69 2.8 NNW 7 9 4 5 1019.7 1019.7 0.0
02/07:30am 12.6 11.1 9.1 79 1.8 NW 7 11 4 6 1019.2 1019.2 0.0
02/07:00am 11.1 9.7 9.4 89 0.8 NNW 7 13 4 7 1018.9 1018.9 0.0
02/06:30am 9.7 9.4 8.5 92 0.6 CALM 0 0 0 0 1018.5 1018.5 0.0
02/06:00am 9.2 8.7 7.8 91 0.7 CALM 0 0 0 0 1018.4 1018.4 0.0
02/05:30am 9.8 8.1 8.4 91 0.7 NW 7 9 4 5 1018.3 1018.3 0.0
02/05:00am 9.7 8.0 8.3 91 0.7 WNW 7 9 4 5 1017.9 1017.9 0.0
02/04:30am 10.0 8.4 8.9 93 0.5 NW 7 13 4 7 1017.6 1017.6 0.0
02/04:00am 9.5 7.9 8.9 96 0.3 NNW 7 9 4 5 1017.2 1017.2 0.0
02/03:30am 9.8 8.3 9.2 96 0.3 NW 7 9 4 5 1017.2 1017.2 0.0
02/03:00am 10.4 9.2 10.2 99 0.1 NNW 7 9 4 5 1017.2 1017.2 0.0
02/02:30am 10.2 10.2 9.9 98 0.2 CALM 0 0 0 0 1017.2 1017.2 0.0
02/02:00am 10.5 9.8 10.0 97 0.3 WNW 4 6 2 3 1017.3 1017.3 0.0
02/01:30am 10.7 9.5 10.2 97 0.3 NW 7 9 4 5 1017.2 1017.2 0.0
02/01:00am 10.6 9.5 10.0 96 0.3 WNW 6 9 3 5 1017.4 1017.4 0.0
02/12:30am 11.5 11.7 10.6 94 0.5 CALM 0 0 0 0 1017.2 1017.2 0.0
02/12:00am 12.1 12.0 10.8 92 0.7 WNW 2 7 1 4 1017.0 1017.0 0.0
 
Date/Time
EST
Tmp

°C
App
Tmp
°C
Dew
Point
°C
Rel
Hum
%
Delta-T

°C
Wind Press
QNH
hPa
Press
MSL
hPa
Rain
since
9 am
mm
Dir
 
Spd
km/h
Gust
km/h
Spd
kts
Gust
kts
01/11:30pm 12.2 12.1 10.9 92 0.7 WNW 2 6 1 3 1017.1 1017.1 0.0
01/11:00pm 13.2 14.0 12.6 96 0.3 CALM 0 0 0 0 1017.0 1017.0 0.0
01/10:30pm 13.0 13.8 12.5 97 0.3 CALM 0 2 0 1 1017.0 1017.0 0.0
01/10:00pm 13.8 13.5 11.5 86 1.2 NNW 4 6 2 3 1017.0 1017.0 0.0
01/09:30pm 13.6 14.1 11.5 87 1.1 CALM 0 0 0 0 1016.9 1016.9 0.0
01/09:00pm 14.3 15.1 12.7 90 0.9 CALM 0 0 0 0 1016.9 1016.9 0.0
01/08:30pm 14.8 14.8 11.2 79 1.9 WNW 2 7 1 4 1016.7 1016.7 0.0
01/08:00pm 15.2 14.6 11.8 80 1.8 NW 6 7 3 4 1016.5 1016.5 0.0
01/07:30pm 16.2 15.6 11.6 74 2.5 N 6 9 3 5 1016.0 1016.0 0.0
01/07:00pm 16.2 16.6 11.2 72 2.7 CALM 0 0 0 0 1015.7 1015.7 0.0
01/06:30pm 17.6 17.5 10.9 65 3.6 NNW 2 7 1 4 1015.4 1015.4 0.0
01/06:00pm 17.6 17.4 10.5 63 3.8 NNE 2 6 1 3 1015.0 1015.0 0.0
01/05:30pm 18.5 17.4 10.8 61 4.2 NNE 7 11 4 6 1014.6 1014.6 0.0
01/05:00pm 19.1 17.5 10.1 56 4.8 NE 9 15 5 8 1014.4 1014.4 0.0
01/04:30pm 19.6 17.8 10.9 57 4.7 ENE 11 17 6 9 1014.2 1014.2 0.0
01/04:00pm 20.0 18.2 11.0 56 4.9 NE 11 19 6 10 1014.1 1014.1 0.0
01/03:30pm 20.2 18.1 11.1 56 5.0 NNE 13 22 7 12 1013.9 1013.9 0.0
01/03:00pm 20.3 17.5 11.5 57 4.9 NE 17 26 9 14 1013.9 1013.9 0.0
01/02:30pm 20.5 17.2 10.9 54 5.3 NE 19 28 10 15 1014.0 1014.0 0.0
01/02:00pm 21.1 18.6 10.9 52 5.6 NE 15 22 8 12 1014.3 1014.3 0.0
01/01:30pm 22.4 20.9 11.8 51 6.0 NE 11 19 6 10 1014.6 1014.6 0.0
01/01:00pm 22.6 19.6 4.2 30 9.0 NNW 9 15 5 8 1015.0 1015.0 0.0
01/12:30pm 22.4 19.8 4.0 30 9.0 NNW 7 15 4 8 1015.4 1015.4 0.0
01/12:00pm 22.1 19.9 5.1 33 8.4 W 6 11 3 6 1015.8 1015.8 0.0
01/11:30am 22.3 20.5 8.1 40 7.5 W 7 15 4 8 1016.3 1016.3 0.0
01/11:00am 21.6 19.3 5.9 36 7.9 WSW 7 15 4 8 1016.8 1016.8 0.0
01/10:30am 20.7 17.5 5.1 36 7.7 WSW 11 17 6 9 1017.3 1017.3 0.0
01/10:00am 18.8 16.6 6.3 44 6.2 N 7 15 4 8 1017.7 1017.7 0.0
01/09:30am 18.6 16.4 6.4 45 6.1 W 7 13 4 7 1017.7 1017.7 0.0
01/09:00am 17.3 14.9 6.8 50 5.2 WNW 9 15 5 8 1017.8 1017.8 0.0
01/08:30am 16.2 14.0 5.5 49 5.1 W 6 11 3 6 1017.8 1017.8 0.0
01/08:00am 15.3 13.3 7.1 58 4.0 WNW 7 13 4 7 1017.6 1017.6 0.0
01/07:30am 13.4 11.3 6.5 63 3.3 WNW 7 13 4 7 1017.6 1017.6 0.0
01/07:00am 11.9 10.0 6.8 71 2.4 WNW 6 9 3 5 1017.2 1017.2 0.0
01/06:30am 10.1 8.0 5.9 75 1.9 NW 6 9 3 5 1017.0 1017.0 0.0
01/06:00am 9.9 8.2 5.7 75 1.9 W 4 7 2 4 1016.6 1016.6 0.0
01/05:30am 10.3 8.2 5.9 74 2.0 W 6 7 3 4 1016.3 1016.3 0.0
01/05:00am 9.6 8.8 6.5 81 1.4 CALM 0 0 0 0 1016.0 1016.0 0.0
01/04:30am 9.9 7.8 5.9 76 1.8 WNW 6 9 3 5 1015.8 1015.8 0.0
01/04:00am 9.6 7.9 6.0 78 1.7 WNW 4 7 2 4 1015.8 1015.8 0.0
01/03:30am 10.0 7.9 5.6 74 2.0 W 6 9 3 5 1016.1 1016.1 0.0
01/03:00am 10.3 8.2 5.9 74 2.0 WNW 6 9 3 5 1016.2 1016.2 0.0
01/02:30am 10.7 8.6 6.6 76 1.9 WSW 7 9 4 5 1016.1 1016.1 0.0
01/02:00am 10.3 8.7 8.1 86 1.1 SSW 6 7 3 4 1016.2 1016.2 0.0
01/01:30am 10.3 9.5 6.3 76 1.9 CALM 0 0 0 0 1016.3 1016.3 0.0
01/01:00am 10.8 10.6 9.1 89 0.8 CALM 0 0 0 0 1016.1 1016.1 0.0
01/12:30am 10.8 10.2 7.3 79 1.7 CALM 0 0 0 0 1016.6 1016.6 0.0
01/12:00am 11.2 10.6 7.5 78 1.8 CALM 0 6 0 3 1016.7 1016.7 0.0
 
Date/Time
EST
Tmp

°C
App
Tmp
°C
Dew
Point
°C
Rel
Hum
%
Delta-T

°C
Wind Press
QNH
hPa
Press
MSL
hPa
Rain
since
9 am
mm
Dir
 
Spd
km/h
Gust
km/h
Spd
kts
Gust
kts
31/11:30pm 11.2 11.0 9.1 87 1.0 CALM 0 6 0 3 1016.7 1016.7 0.0
31/11:00pm 12.1 11.2 10.5 90 0.8 WNW 6 7 3 4 1016.5 1016.5 0.0
31/10:30pm 12.3 12.7 11.4 94 0.5 CALM 0 0 0 0 1016.4 1016.4 0.0
31/10:00pm 12.7 13.2 11.6 93 0.6 CALM 0 0 0 0 1016.2 1016.2 0.0
31/09:30pm 12.8 13.3 11.5 92 0.7 CALM 0 0 0 0 1016.1 1016.1 0.0
31/09:00pm 13.2 13.7 11.6 90 0.8 CALM 0 0 0 0 1015.9 1015.9 0.0
31/08:30pm 14.1 14.7 12.0 87 1.1 CALM 0 6 0 3 1015.8 1015.8 0.0
31/08:00pm 14.7 14.6 12.0 84 1.5 W 4 9 2 5 1015.7 1015.7 0.0
31/07:30pm 15.2 15.4 11.8 80 1.8 WSW 2 6 1 3 1015.6 1015.6 0.0
31/07:00pm 16.0 15.3 12.0 77 2.2 SW 7 11 4 6 1015.1 1015.1 0.0
31/06:30pm 16.6 15.9 11.9 74 2.6 SW 7 9 4 5 1014.7 1014.7 0.0
31/06:00pm 17.7 17.2 11.9 69 3.2 NNE 6 7 3 4 1014.3 1014.3 0.0
31/05:30pm 18.4 17.6 11.0 62 4.0 E 6 7 3 4 1014.2 1014.2 0.0
31/05:00pm 19.0 17.8 11.6 62 4.1 ENE 9 11 5 6 1013.8 1013.8 0.0
31/04:30pm 19.8 18.6 11.6 59 4.5 NE 9 13 5 7 1013.7 1013.7 0.0
31/04:00pm 19.7 18.7 10.9 57 4.8 E 7 13 4 7 1013.4 1013.4 0.0
31/03:30pm 20.1 18.7 10.8 55 5.1 ESE 9 15 5 8 1013.2 1013.2 0.0
31/03:00pm 20.5 18.9 11.4 56 5.0 E 11 17 6 9 1013.3 1013.3 0.0
31/02:30pm 19.9 18.1 10.9 56 4.9 ESE 11 19 6 10 1013.5 1013.5 0.0
31/02:00pm 21.4 19.6 12.0 55 5.3 E 13 17 7 9 1013.7 1013.7 0.0
31/01:30pm 20.5 18.8 11.2 55 5.1 SE 11 19 6 10 1013.9 1013.9 0.0
31/01:00pm 19.8 17.8 10.0 53 5.2 SE 11 17 6 9 1014.1 1014.1 0.0
31/12:30pm 19.8 17.4 10.0 53 5.3 SE 13 20 7 11 1014.3 1014.3 0.0
31/12:00pm 20.6 18.3 8.9 47 6.2 ESE 11 17 6 9 1014.6 1014.6 0.0
31/11:30am 21.2 19.4 7.1 40 7.2 SW 6 17 3 9 1015.0 1015.0 0.0
31/11:00am 20.8 19.2 7.8 43 6.7 WSW 6 11 3 6 1015.5 1015.5 0.0
31/10:30am 20.6 19.0 8.6 46 6.3 SSW 7 15 4 8 1015.9 1015.9 0.0
31/10:00am 20.1 17.5 7.8 45 6.3 SSW 11 17 6 9 1016.2 1016.2 0.0
31/09:30am 19.2 16.1 5.6 41 6.7 SW 11 17 6 9 1016.6 1016.6 0.0
31/09:00am 18.6 16.9 8.3 51 5.3 SSW 7 13 4 7 1016.7 1016.7 0.2
31/08:30am 16.9 15.1 8.1 56 4.5 SW 7 9 4 5 1016.7 1016.7 0.2
31/08:00am 15.5 14.2 6.2 54 4.5 S 2 7 1 4 1016.7 1016.7 0.2
31/07:30am 14.2 13.2 5.6 56 4.1 CALM 0 6 0 3 1016.6 1016.6 0.2
31/07:00am 12.6 12.0 7.5 71 2.5 CALM 0 0 0 0 1016.1 1016.1 0.2
31/06:30am 10.9 10.1 6.6 75 2.0 CALM 0 0 0 0 1015.7 1015.7 0.2
31/06:00am 10.6 9.7 6.2 74 2.0 CALM 0 0 0 0 1015.4 1015.4 0.2
31/05:30am 10.8 9.8 5.8 71 2.3 CALM 0 0 0 0 1015.2 1015.2 0.2
31/05:00am 11.0 10.2 6.4 73 2.2 CALM 0 0 0 0 1015.1 1015.1 0.2
31/04:30am 11.2 10.2 5.5 68 2.6 CALM 0 4 0 2 1015.1 1015.1 0.2
31/04:00am 11.4 10.6 6.3 71 2.4 CALM 0 0 0 0 1015.1 1015.1 0.2
31/03:30am 11.6 10.6 5.5 66 2.8 CALM 0 6 0 3 1015.1 1015.1 0.2
31/03:00am 11.6 10.5 5.0 64 3.0 CALM 0 0 0 0 1015.3 1015.3 0.2
31/02:30am 12.6 10.3 5.8 63 3.2 SW 7 9 4 5 1015.6 1015.6 0.2
31/02:00am 11.8 10.3 5.2 64 3.0 WSW 2 7 1 4 1015.8 1015.8 0.2
31/01:30am 12.8 10.7 5.7 62 3.3 WSW 6 11 3 6 1016.0 1016.0 0.2
31/01:00am 13.4 11.1 5.6 59 3.7 SW 7 11 4 6 1016.3 1016.3 0.2
31/12:30am 12.7 10.4 5.6 62 3.3 WSW 7 11 4 6 1016.5 1016.5 0.2
31/12:00am 12.5 11.2 5.9 64 3.1 W 2 9 1 5 1016.7 1016.7 0.2
 
Date/Time
EST
Tmp

°C
App
Tmp
°C
Dew
Point
°C
Rel
Hum
%
Delta-T

°C
Wind Press
QNH
hPa
Press
MSL
hPa
Rain
since
9 am
mm
Dir
 
Spd
km/h
Gust
km/h
Spd
kts
Gust
kts
30/11:30pm 12.7 11.3 5.6 62 3.3 SW 2 7 1 4 1016.9 1016.9 0.2
30/11:00pm 13.1 12.1 5.5 60 3.5 CALM 0 0 0 0 1016.9 1016.9 0.2
30/10:30pm 13.3 11.5 5.5 59 3.7 SW 4 7 2 4 1017.0 1017.0 0.2
30/10:00pm 14.2 12.1 5.6 56 4.1 WSW 6 9 3 5 1016.9 1016.9 0.2
30/09:30pm 14.2 12.1 5.6 56 4.1 WSW 6 9 3 5 1017.0 1017.0 0.2
30/09:00pm 14.0 12.3 5.9 58 3.8 WSW 4 9 2 5 1017.0 1017.0 0.2
30/08:30pm 14.9 13.2 6.0 55 4.3 WSW 4 9 2 5 1016.8 1016.8 0.2
30/08:00pm 16.2 14.2 6.9 54 4.6 SW 7 9 4 5 1016.5 1016.5 0.2
30/07:30pm 16.7 15.0 7.4 54 4.6 SW 6 9 3 5 1016.2 1016.2 0.2
30/07:00pm 17.1 15.1 6.9 51 5.1 SW 7 11 4 6 1015.8 1015.8 0.2
30/06:30pm 17.5 15.7 7.8 53 4.9 SW 7 11 4 6 1015.4 1015.4 0.2
30/06:00pm 18.5 16.7 7.3 48 5.6 SW 6 9 3 5 1014.9 1014.9 0.2
30/05:30pm 19.7 17.9 8.1 47 6.0 SW 7 9 4 5 1014.5 1014.5 0.2
30/05:00pm 21.2 19.4 7.1 40 7.2 SW 6 13 3 7 1014.1 1014.1 0.2
30/04:30pm 22.4 19.9 6.6 36 8.1 SW 9 15 5 8 1013.8 1013.8 0.2
30/04:00pm 22.5 19.5 5.9 34 8.4 WSW 11 22 6 12 1013.6 1013.6 0.2
30/03:30pm 22.6 19.3 6.4 35 8.3 WSW 13 22 7 12 1013.6 1013.6 0.2
30/03:00pm 23.5 21.3 8.0 37 8.2 WSW 9 15 5 8 1013.7 1013.7 0.2
30/02:30pm 23.5 21.3 8.0 37 8.2 WSW 9 15 5 8 1014.0 1014.0 0.2

Latest Capital City Observations: Canberra | Sydney | Melbourne | Brisbane | Adelaide | Perth | Hobart | Darwin

Other Formats:

Comma delimited format used in spreadsheet applications
http://www.bom.gov.au/fwo/IDQ60901/IDQ60901.94570.axf

JavaScript Object Notation format (JSON) in row-major order
http://www.bom.gov.au/fwo/IDQ60901/IDQ60901.94570.json